Cyprus Cement — C6UP5 — position and weather

sailwx.info

Track history (hours):
 
Tides and Currents Weather Stations Pressure Air Temp Water Temp Dewpoint Dewpoint Depression Visibility Wind Speed Wind Dir Waves Ship Positions

Cyprus Cement

Last reported at 2014-Sep-24 13:33 UTC. Time now 2014-Sep-30 11:50 UTC.
Position N 67°48' E 014°12'.

Length 97 m; draft 4.7 m.

Type: Cargo ship. MMSI: 311988000.

Date/timePositionNaut miles runAvg speedWind from/ knotsBaromVisibWave heightAir tempDewpointWater temp
2014-Sep-24 13:33N 67°48' E 014°12'8712.4
2014-Sep-24 06:30N 66°38' E 011°58'1212.7
2014-Sep-24 05:33N 66°28' E 011°41'18411.4
2014-Sep-23 13:30N 63°29' E 010°03'1212.5
2014-Sep-23 12:33N 63°34' E 010°26'8 0.6
2014-Sep-22 23:32N 63°38' E 010°41'9 9.5
2014-Sep-22 22:34N 63°31' E 010°29'4 4.1
2014-Sep-22 21:31N 63°27' E 010°25'0 0.0
2014-Sep-22 20:31N 63°27' E 010°25'0 0.0
2014-Sep-22 19:31N 63°27' E 010°25'0 0.0
2014-Sep-22 18:31N 63°27' E 010°25'0 0.0
2014-Sep-22 17:31N 63°27' E 010°25'0 0.0
2014-Sep-22 16:31N 63°27' E 010°25'0 0.0
2014-Sep-22 15:31N 63°27' E 010°25'0 0.0
2014-Sep-22 14:31N 63°27' E 010°25'0 0.0
2014-Sep-22 13:31N 63°27' E 010°25'0 0.0
2014-Sep-22 12:31N 63°27' E 010°25'0 0.0
2014-Sep-22 11:31N 63°27' E 010°25'0 0.0
2014-Sep-22 10:31N 63°27' E 010°25'2 1.9
2014-Sep-22 09:33N 63°28' E 010°23'1311.6
2014-Sep-22 08:27N 63°30' E 009°55'290 5.9
2014-Sep-20 07:17N 59°17' E 004°59'911.8
2014-Sep-20 06:33N 59°09' E 005°04'1211.8
2014-Sep-20 05:33N 58°58' E 005°12'1211.8
2014-Sep-20 04:33N 58°46' E 005°19'1412.7
2014-Sep-20 03:26N 58°33' E 005°30'1112.7
2014-Sep-20 02:33N 58°24' E 005°43'1212.5
2014-Sep-20 01:33N 58°17' E 006°01'1211.8
2014-Sep-20 00:32N 58°08' E 006°17'3611.2
2014-Sep-19 21:21N 57°53' E 007°18'1312.8
2014-Sep-19 20:21N 57°54' E 007°43'1412.8
2014-Sep-19 19:16N 57°59' E 008°07'912.9
2014-Sep-19 18:33N 58°04' E 008°22'1313.0
2014-Sep-19 17:33N 58°12' E 008°40'1312.8
2014-Sep-19 16:33N 58°21' E 008°58'3812.4
2014-Sep-19 13:29N 58°52' E 009°42'1010.4
2014-Sep-19 12:32N 59°01' E 009°45'9 0.5
2014-Sep-18 18:24N 58°55' E 009°55'8 9.8
2014-Sep-18 17:33N 58°56' E 010°11'1212.0
2014-Sep-18 16:33N 58°60' E 010°33'1212.3
2014-Sep-18 15:33N 59°12' E 010°38'1312.8
2014-Sep-18 14:33N 59°25' E 010°33'1212.2
2014-Sep-18 13:33N 59°37' E 010°38'1611.3
2014-Sep-18 12:07N 59°53' E 010°39'3 3.9
2014-Sep-18 11:20N 59°53' E 010°45'0 0.0
2014-Sep-18 10:26N 59°53' E 010°45'0 0.0
2014-Sep-18 09:14N 59°53' E 010°45'0 0.0
2014-Sep-18 08:29N 59°53' E 010°45'0 0.0
2014-Sep-18 06:17N 59°53' E 010°45'0 0.0
2014-Sep-18 05:32N 59°53' E 010°45'0 0.0
2014-Sep-18 04:32N 59°53' E 010°45'0 0.0
2014-Sep-18 03:32N 59°53' E 010°45'0 0.0
2014-Sep-18 02:32N 59°53' E 010°45'3 3.4
2014-Sep-18 01:33N 59°52' E 010°39'1511.3
2014-Sep-18 00:12N 59°37' E 010°38'811.9
2014-Sep-17 23:32N 59°29' E 010°35'1211.8
2014-Sep-17 22:33N 59°18' E 010°36'1211.9
2014-Sep-17 21:33N 59°06' E 010°37'1110.8
2014-Sep-17 20:33N 58°58' E 010°23'18 1.9
2014-Sep-17 11:12N 58°58' E 009°48'5012.7
2014-Sep-17 07:14N 58°16' E 010°42'811.8
2014-Sep-17 06:33N 58°09' E 010°51'1312.6
2014-Sep-17 05:32N 57°59' E 011°04'1212.6
2014-Sep-17 04:33N 57°48' E 011°17'1312.7
2014-Sep-17 03:33N 57°38' E 011°32'5 5.2
2014-Sep-17 02:31N 57°36' E 011°41'0 0.0
2014-Sep-17 01:31N 57°36' E 011°41'0 0.0
2014-Sep-17 00:31N 57°36' E 011°41'4 4.3
2014-Sep-16 23:33N 57°32' E 011°38'1313.0
2014-Sep-16 22:33N 57°19' E 011°39'1312.8
2014-Sep-16 21:33N 57°07' E 011°42'1212.5
2014-Sep-16 20:33N 56°55' E 011°49'1312.9
2014-Sep-16 19:33N 56°42' E 011°56'1312.7
2014-Sep-16 18:33N 56°30' E 012°01'1312.7
2014-Sep-16 17:33N 56°20' E 012°15'1413.9
2014-Sep-16 16:33N 56°09' E 012°30'1413.6
2014-Sep-16 15:33N 55°57' E 012°43'1212.3
2014-Sep-16 14:33N 55°46' E 012°50'10 9.9
2014-Sep-16 13:31N 55°38' E 013°01'0 0.0
2014-Sep-16 12:31N 55°38' E 013°01'0 0.0
2014-Sep-16 11:28N 55°38' E 013°01'0 0.0
2014-Sep-16 10:28N 55°38' E 013°01'0 0.0
2014-Sep-16 09:31N 55°38' E 013°01'0 0.0
2014-Sep-16 08:28N 55°38' E 013°01'0 0.0
2014-Sep-16 07:28N 55°38' E 013°01'0 0.0
2014-Sep-16 06:31N 55°38' E 013°01'0 0.0
2014-Sep-16 05:28N 55°38' E 013°01'0 0.0
2014-Sep-16 04:31N 55°38' E 013°01'0 0.0
2014-Sep-16 03:31N 55°38' E 013°01'0 0.0
2014-Sep-16 02:31N 55°38' E 013°01'0 0.0
2014-Sep-16 01:31N 55°38' E 013°01'0 0.0
2014-Sep-16 00:28N 55°38' E 013°01'0 0.0
2014-Sep-15 23:25N 55°38' E 013°01'0 0.0
2014-Sep-15 22:28N 55°38' E 013°01'0 0.0
2014-Sep-15 21:31N 55°38' E 013°01'0 0.0
2014-Sep-15 20:31N 55°38' E 013°01'0 0.0
2014-Sep-15 19:28N 55°38' E 013°01'0 0.0
2014-Sep-15 18:31N 55°38' E 013°01'0 0.0
2014-Sep-15 17:31N 55°38' E 013°01'1 1.4
2014-Sep-15 16:33N 55°38' E 012°59'9 9.1
2014-Sep-15 15:33N 55°32' E 012°46'1110.8
2014-Sep-15 14:33N 55°22' E 012°41'10 9.7
2014-Sep-15 13:33N 55°16' E 012°54'1212.1
2014-Sep-15 12:33N 55°15' E 013°15'1212.3
2014-Sep-15 11:33N 55°14' E 013°37'1212.1
2014-Sep-15 10:33N 55°14' E 013°58'1211.6
2014-Sep-15 09:33N 55°16' E 014°18'1212.1
2014-Sep-15 08:33N 55°24' E 014°33'1211.8
2014-Sep-15 07:33N 55°31' E 014°50'1211.8
2014-Sep-15 06:33N 55°37' E 015°08'8812.0
2014-Sep-14 23:14N 56°25' E 017°20'1111.9
2014-Sep-14 22:18N 56°32' E 017°36'911.9
2014-Sep-14 21:33N 56°37' E 017°49'1211.9
2014-Sep-14 20:33N 56°45' E 018°06'1412.3
2014-Sep-14 19:25N 56°53' E 018°26'1112.2
2014-Sep-14 18:30N 57°02' E 018°39'1212.2
2014-Sep-14 17:33N 57°12' E 018°51'1712.1
2014-Sep-14 16:06N 57°26' E 019°09'  
Track history (hours):
 
Tides and Currents Weather Stations Pressure Air Temp Water Temp Dewpoint Dewpoint Depression Visibility Wind Speed Wind Dir Waves Ship Positions

Cyprus Cement

Last reported at 2014-Sep-24 13:33 UTC. Time now 2014-Sep-30 11:50 UTC.
Position N 67°48' E 014°12'.

Length 97 m; draft 4.7 m.

Type: Cargo ship. MMSI: 311988000.

Date/timePositionNaut miles runAvg speedWind from/ knotsBaromVisibWave heightAir tempDewpointWater temp
2014-Sep-24 13:33N 67°48' E 014°12'8712.4
2014-Sep-24 06:30N 66°38' E 011°58'1212.7
2014-Sep-24 05:33N 66°28' E 011°41'18411.4
2014-Sep-23 13:30N 63°29' E 010°03'1212.5
2014-Sep-23 12:33N 63°34' E 010°26'8 0.6
2014-Sep-22 23:32N 63°38' E 010°41'9 9.5
2014-Sep-22 22:34N 63°31' E 010°29'4 4.1
2014-Sep-22 21:31N 63°27' E 010°25'0 0.0
2014-Sep-22 20:31N 63°27' E 010°25'0 0.0
2014-Sep-22 19:31N 63°27' E 010°25'0 0.0
2014-Sep-22 18:31N 63°27' E 010°25'0 0.0
2014-Sep-22 17:31N 63°27' E 010°25'0 0.0
2014-Sep-22 16:31N 63°27' E 010°25'0 0.0
2014-Sep-22 15:31N 63°27' E 010°25'0 0.0
2014-Sep-22 14:31N 63°27' E 010°25'0 0.0
2014-Sep-22 13:31N 63°27' E 010°25'0 0.0
2014-Sep-22 12:31N 63°27' E 010°25'0 0.0
2014-Sep-22 11:31N 63°27' E 010°25'0 0.0
2014-Sep-22 10:31N 63°27' E 010°25'2 1.9
2014-Sep-22 09:33N 63°28' E 010°23'1311.6
2014-Sep-22 08:27N 63°30' E 009°55'290 5.9
2014-Sep-20 07:17N 59°17' E 004°59'911.8
2014-Sep-20 06:33N 59°09' E 005°04'1211.8
2014-Sep-20 05:33N 58°58' E 005°12'1211.8
2014-Sep-20 04:33N 58°46' E 005°19'1412.7
2014-Sep-20 03:26N 58°33' E 005°30'1112.7
2014-Sep-20 02:33N 58°24' E 005°43'1212.5
2014-Sep-20 01:33N 58°17' E 006°01'1211.8
2014-Sep-20 00:32N 58°08' E 006°17'3611.2
2014-Sep-19 21:21N 57°53' E 007°18'1312.8
2014-Sep-19 20:21N 57°54' E 007°43'1412.8
2014-Sep-19 19:16N 57°59' E 008°07'912.9
2014-Sep-19 18:33N 58°04' E 008°22'1313.0
2014-Sep-19 17:33N 58°12' E 008°40'1312.8
2014-Sep-19 16:33N 58°21' E 008°58'3812.4
2014-Sep-19 13:29N 58°52' E 009°42'1010.4
2014-Sep-19 12:32N 59°01' E 009°45'9 0.5
2014-Sep-18 18:24N 58°55' E 009°55'8 9.8
2014-Sep-18 17:33N 58°56' E 010°11'1212.0
2014-Sep-18 16:33N 58°60' E 010°33'1212.3
2014-Sep-18 15:33N 59°12' E 010°38'1312.8
2014-Sep-18 14:33N 59°25' E 010°33'1212.2
2014-Sep-18 13:33N 59°37' E 010°38'1611.3
2014-Sep-18 12:07N 59°53' E 010°39'3 3.9
2014-Sep-18 11:20N 59°53' E 010°45'0 0.0
2014-Sep-18 10:26N 59°53' E 010°45'0 0.0
2014-Sep-18 09:14N 59°53' E 010°45'0 0.0
2014-Sep-18 08:29N 59°53' E 010°45'0 0.0
2014-Sep-18 06:17N 59°53' E 010°45'0 0.0
2014-Sep-18 05:32N 59°53' E 010°45'0 0.0
2014-Sep-18 04:32N 59°53' E 010°45'0 0.0
2014-Sep-18 03:32N 59°53' E 010°45'0 0.0
2014-Sep-18 02:32N 59°53' E 010°45'3 3.4
2014-Sep-18 01:33N 59°52' E 010°39'1511.3
2014-Sep-18 00:12N 59°37' E 010°38'811.9
2014-Sep-17 23:32N 59°29' E 010°35'1211.8
2014-Sep-17 22:33N 59°18' E 010°36'1211.9
2014-Sep-17 21:33N 59°06' E 010°37'1110.8
2014-Sep-17 20:33N 58°58' E 010°23'18 1.9
2014-Sep-17 11:12N 58°58' E 009°48'5012.7
2014-Sep-17 07:14N 58°16' E 010°42'811.8
2014-Sep-17 06:33N 58°09' E 010°51'1312.6
2014-Sep-17 05:32N 57°59' E 011°04'1212.6
2014-Sep-17 04:33N 57°48' E 011°17'1312.7
2014-Sep-17 03:33N 57°38' E 011°32'5 5.2
2014-Sep-17 02:31N 57°36' E 011°41'0 0.0
2014-Sep-17 01:31N 57°36' E 011°41'0 0.0
2014-Sep-17 00:31N 57°36' E 011°41'4 4.3
2014-Sep-16 23:33N 57°32' E 011°38'1313.0
2014-Sep-16 22:33N 57°19' E 011°39'1312.8
2014-Sep-16 21:33N 57°07' E 011°42'1212.5
2014-Sep-16 20:33N 56°55' E 011°49'1312.9
2014-Sep-16 19:33N 56°42' E 011°56'1312.7
2014-Sep-16 18:33N 56°30' E 012°01'1312.7
2014-Sep-16 17:33N 56°20' E 012°15'1413.9
2014-Sep-16 16:33N 56°09' E 012°30'1413.6
2014-Sep-16 15:33N 55°57' E 012°43'1212.3
2014-Sep-16 14:33N 55°46' E 012°50'10 9.9
2014-Sep-16 13:31N 55°38' E 013°01'0 0.0
2014-Sep-16 12:31N 55°38' E 013°01'0 0.0
2014-Sep-16 11:28N 55°38' E 013°01'0 0.0
2014-Sep-16 10:28N 55°38' E 013°01'0 0.0
2014-Sep-16 09:31N 55°38' E 013°01'0 0.0
2014-Sep-16 08:28N 55°38' E 013°01'0 0.0
2014-Sep-16 07:28N 55°38' E 013°01'0 0.0
2014-Sep-16 06:31N 55°38' E 013°01'0 0.0
2014-Sep-16 05:28N 55°38' E 013°01'0 0.0
2014-Sep-16 04:31N 55°38' E 013°01'0 0.0
2014-Sep-16 03:31N 55°38' E 013°01'0 0.0
2014-Sep-16 02:31N 55°38' E 013°01'0 0.0
2014-Sep-16 01:31N 55°38' E 013°01'0 0.0
2014-Sep-16 00:28N 55°38' E 013°01'0 0.0
2014-Sep-15 23:25N 55°38' E 013°01'0 0.0
2014-Sep-15 22:28N 55°38' E 013°01'0 0.0
2014-Sep-15 21:31N 55°38' E 013°01'0 0.0
2014-Sep-15 20:31N 55°38' E 013°01'0 0.0
2014-Sep-15 19:28N 55°38' E 013°01'0 0.0
2014-Sep-15 18:31N 55°38' E 013°01'0 0.0
2014-Sep-15 17:31N 55°38' E 013°01'1 1.4
2014-Sep-15 16:33N 55°38' E 012°59'9 9.1
2014-Sep-15 15:33N 55°32' E 012°46'1110.8
2014-Sep-15 14:33N 55°22' E 012°41'10 9.7
2014-Sep-15 13:33N 55°16' E 012°54'1212.1
2014-Sep-15 12:33N 55°15' E 013°15'1212.3
2014-Sep-15 11:33N 55°14' E 013°37'1212.1
2014-Sep-15 10:33N 55°14' E 013°58'1211.6
2014-Sep-15 09:33N 55°16' E 014°18'1212.1
2014-Sep-15 08:33N 55°24' E 014°33'1211.8
2014-Sep-15 07:33N 55°31' E 014°50'1211.8
2014-Sep-15 06:33N 55°37' E 015°08'8812.0
2014-Sep-14 23:14N 56°25' E 017°20'1111.9
2014-Sep-14 22:18N 56°32' E 017°36'911.9
2014-Sep-14 21:33N 56°37' E 017°49'1211.9
2014-Sep-14 20:33N 56°45' E 018°06'1412.3
2014-Sep-14 19:25N 56°53' E 018°26'1112.2
2014-Sep-14 18:30N 57°02' E 018°39'1212.2
2014-Sep-14 17:33N 57°12' E 018°51'1712.1
2014-Sep-14 16:06N 57°26' E 019°09'  

Dump ship's entire track history